Aeroporto :
LOGIN :

Iscrizione | Disclaimer

   EN    FR    IT 

 










Sommario :    VFR   VFR Marginale   IFR   IFR Intensivo   IFR Molto Intensivo
Visibilità : 
Base nubi : 
>= 8 km
>= 3000ft
5 / 8 km
1000 / 3000 ft
1500m / 5 km
500 / 1000 ft
800 / 1500m
200 / 500 ft
< 800m
< 200 ft
Simboli :   Temporali  Nebbia  Neve Forte  Precipitazioni Forti  Vento > 20 kt
SIGMETs :   Varie  Temporali  Ghiacco  Turbolenza  Onda orograficha  Ceneri Vulcaniche






- Altitudine del aeroporto : 1302 ft
- Codice IATA : GNB


LFLS - Grenoble / St. Geoirs

ULTIMO METAR :
  • 181730Z AUTO 24006KT 210V270 CAVOK 27/15 Q1013 NOSIG

METARs OBSOLETI :
  • 181700Z AUTO 23007KT 200V260 CAVOK 28/16 Q1013 NOSIG
  • 181630Z AUTO 21008KT 170V250 CAVOK 28/16 Q1013 NOSIG
  • 181600Z AUTO 22010KT 190V250 CAVOK 28/15 Q1013 NOSIG
  • 181530Z AUTO 22008KT 170V260 CAVOK 28/16 Q1013 NOSIG
  • 181500Z AUTO 24010KT 190V260 CAVOK 28/16 Q1014 NOSIG
  • 181430Z AUTO 22009KT 180V260 CAVOK 28/17 Q1014 NOSIG
  • 181400Z AUTO 24011KT CAVOK 28/16 Q1014 NOSIG
  • 181330Z AUTO 21010KT 180V240 CAVOK 28/16 Q1014 NOSIG

TAF TAF LFLS
Valido dal 18 a 15 ore il 19 a 15 ore UTC


181400Z 1815/1915 24006KT CAVOK
TEMPO 1821/1910 VRB03KT
ATIS : +33 4 76 65 55 89



MetMap, La meteo Aeronautica in un colpo d'occhio ! - Copyright ORBIFLY Dicembre 2007 - Disclaimer

ORBIFLY MET'MAP TEAM :

Programmazione e sviluppo : Alexandra Zaïnal
Concezione : Baudouin d'Aumeries
Supporto tecnico e logistico : Manuel Goepfert
Aiuto : Marc-Olivier Méhu
Aiuto per la traduzione : Arnaldo La Scala




FONTI E CREDITI :

   NOAA